sensor_id;sensor_type;location;lat;lon;timestamp;P1;durP1;ratioP1;P2;durP2;ratioP2
10643;SDS011;5370;50.132;8.626;2022-11-20T00:00:43;21.00;;;14.30;;
10643;SDS011;5370;50.132;8.626;2022-11-20T00:03:09;20.63;;;13.93;;
10643;SDS011;5370;50.132;8.626;2022-11-20T00:05:36;17.33;;;12.33;;
10643;SDS011;5370;50.132;8.626;2022-11-20T00:08:01;23.30;;;15.90;;
10643;SDS011;5370;50.132;8.626;2022-11-20T00:10:27;21.87;;;15.40;;
10643;SDS011;5370;50.132;8.626;2022-11-20T00:12:53;22.00;;;14.97;;
10643;SDS011;5370;50.132;8.626;2022-11-20T00:15:19;23.17;;;15.73;;
10643;SDS011;5370;50.132;8.626;2022-11-20T00:17:45;19.43;;;14.37;;
10643;SDS011;5370;50.132;8.626;2022-11-20T00:20:11;31.33;;;20.77;;
10643;SDS011;5370;50.132;8.626;2022-11-20T00:22:42;19.30;;;13.93;;
10643;SDS011;5370;50.132;8.626;2022-11-20T00:25:10;20.67;;;15.20;;
10643;SDS011;5370;50.132;8.626;2022-11-20T00:27:36;21.83;;;14.70;;
10643;SDS011;5370;50.132;8.626;2022-11-20T00:30:03;20.23;;;15.40;;
10643;SDS011;5370;50.132;8.626;2022-11-20T00:32:29;19.07;;;14.97;;
10643;SDS011;5370;50.132;8.626;2022-11-20T00:34:55;20.70;;;14.60;;
10643;SDS011;5370;50.132;8.626;2022-11-20T00:37:21;23.37;;;16.13;;
10643;SDS011;5370;50.132;8.626;2022-11-20T00:39:46;21.00;;;15.60;;
10643;SDS011;5370;50.132;8.626;2022-11-20T00:42:12;22.87;;;15.77;;
10643;SDS011;5370;50.132;8.626;2022-11-20T00:44:38;20.80;;;15.23;;
10643;SDS011;5370;50.132;8.626;2022-11-20T00:47:04;20.17;;;14.53;;
10643;SDS011;5370;50.132;8.626;2022-11-20T00:49:29;20.37;;;14.53;;
10643;SDS011;5370;50.132;8.626;2022-11-20T00:51:55;23.47;;;16.00;;
10643;SDS011;5370;50.132;8.626;2022-11-20T00:54:20;21.10;;;15.37;;
10643;SDS011;5370;50.132;8.626;2022-11-20T00:56:46;21.50;;;15.17;;
10643;SDS011;5370;50.132;8.626;2022-11-20T00:59:11;21.40;;;15.00;;
10643;SDS011;5370;50.132;8.626;2022-11-20T01:01:37;18.97;;;14.07;;
10643;SDS011;5370;50.132;8.626;2022-11-20T01:04:03;21.57;;;15.90;;
10643;SDS011;5370;50.132;8.626;2022-11-20T01:06:31;20.63;;;15.60;;
10643;SDS011;5370;50.132;8.626;2022-11-20T01:08:59;20.67;;;15.87;;
10643;SDS011;5370;50.132;8.626;2022-11-20T01:11:26;21.73;;;14.77;;
10643;SDS011;5370;50.132;8.626;2022-11-20T01:13:54;19.67;;;15.00;;
10643;SDS011;5370;50.132;8.626;2022-11-20T01:16:32;21.47;;;14.73;;
10643;SDS011;5370;50.132;8.626;2022-11-20T01:19:03;24.83;;;15.33;;
10643;SDS011;5370;50.132;8.626;2022-11-20T01:21:32;22.03;;;15.50;;
10643;SDS011;5370;50.132;8.626;2022-11-20T01:24:02;21.27;;;15.27;;
10643;SDS011;5370;50.132;8.626;2022-11-20T01:26:30;24.57;;;16.53;;
10643;SDS011;5370;50.132;8.626;2022-11-20T01:28:58;22.47;;;15.63;;
10643;SDS011;5370;50.132;8.626;2022-11-20T01:31:26;24.00;;;16.57;;
10643;SDS011;5370;50.132;8.626;2022-11-20T01:33:54;24.57;;;16.80;;
10643;SDS011;5370;50.132;8.626;2022-11-20T01:36:23;23.63;;;17.20;;
10643;SDS011;5370;50.132;8.626;2022-11-20T01:39:00;25.23;;;17.37;;
10643;SDS011;5370;50.132;8.626;2022-11-20T01:41:29;25.67;;;18.23;;
10643;SDS011;5370;50.132;8.626;2022-11-20T01:44:16;25.70;;;17.83;;
10643;SDS011;5370;50.132;8.626;2022-11-20T01:49:27;25.63;;;18.40;;
10643;SDS011;5370;50.132;8.626;2022-11-20T01:52:04;23.03;;;17.87;;
10643;SDS011;5370;50.132;8.626;2022-11-20T01:54:41;26.03;;;18.23;;
10643;SDS011;5370;50.132;8.626;2022-11-20T01:57:21;23.23;;;17.70;;
10643;SDS011;5370;50.132;8.626;2022-11-20T01:59:52;26.20;;;17.60;;
10643;SDS011;5370;50.132;8.626;2022-11-20T02:02:21;24.33;;;17.13;;
10643;SDS011;5370;50.132;8.626;2022-11-20T02:04:48;25.30;;;17.80;;
10643;SDS011;5370;50.132;8.626;2022-11-20T02:07:16;23.43;;;17.30;;
10643;SDS011;5370;50.132;8.626;2022-11-20T02:09:42;23.33;;;17.20;;
10643;SDS011;5370;50.132;8.626;2022-11-20T02:12:08;28.10;;;19.30;;
10643;SDS011;5370;50.132;8.626;2022-11-20T02:14:53;26.53;;;18.20;;
10643;SDS011;5370;50.132;8.626;2022-11-20T02:17:19;25.67;;;18.57;;
10643;SDS011;5370;50.132;8.626;2022-11-20T02:19:45;26.53;;;19.03;;
10643;SDS011;5370;50.132;8.626;2022-11-20T02:22:13;25.37;;;18.37;;
10643;SDS011;5370;50.132;8.626;2022-11-20T02:24:44;25.37;;;17.17;;
10643;SDS011;5370;50.132;8.626;2022-11-20T02:27:14;25.47;;;18.20;;
10643;SDS011;5370;50.132;8.626;2022-11-20T02:29:46;24.17;;;16.60;;
10643;SDS011;5370;50.132;8.626;2022-11-20T02:32:20;25.47;;;18.07;;
10643;SDS011;5370;50.132;8.626;2022-11-20T02:34:48;23.63;;;17.37;;
10643;SDS011;5370;50.132;8.626;2022-11-20T02:37:13;26.80;;;18.40;;
10643;SDS011;5370;50.132;8.626;2022-11-20T02:39:39;27.27;;;17.53;;
10643;SDS011;5370;50.132;8.626;2022-11-20T02:42:06;26.20;;;18.17;;
10643;SDS011;5370;50.132;8.626;2022-11-20T02:44:31;24.27;;;17.03;;
10643;SDS011;5370;50.132;8.626;2022-11-20T02:46:57;24.90;;;16.40;;
10643;SDS011;5370;50.132;8.626;2022-11-20T02:49:23;27.37;;;18.50;;
10643;SDS011;5370;50.132;8.626;2022-11-20T02:51:49;27.60;;;18.57;;
10643;SDS011;5370;50.132;8.626;2022-11-20T02:54:15;26.07;;;18.67;;
10643;SDS011;5370;50.132;8.626;2022-11-20T02:56:40;26.93;;;18.80;;
10643;SDS011;5370;50.132;8.626;2022-11-20T02:59:06;25.87;;;18.23;;
10643;SDS011;5370;50.132;8.626;2022-11-20T03:01:31;24.77;;;18.27;;
10643;SDS011;5370;50.132;8.626;2022-11-20T03:03:57;29.63;;;19.23;;
10643;SDS011;5370;50.132;8.626;2022-11-20T03:06:23;28.57;;;19.00;;
10643;SDS011;5370;50.132;8.626;2022-11-20T03:08:48;26.60;;;18.83;;
10643;SDS011;5370;50.132;8.626;2022-11-20T03:11:14;26.60;;;18.53;;
10643;SDS011;5370;50.132;8.626;2022-11-20T03:13:39;27.53;;;18.33;;
10643;SDS011;5370;50.132;8.626;2022-11-20T03:16:06;26.93;;;18.97;;
10643;SDS011;5370;50.132;8.626;2022-11-20T03:18:39;29.00;;;20.30;;
10643;SDS011;5370;50.132;8.626;2022-11-20T03:21:06;28.63;;;19.13;;
10643;SDS011;5370;50.132;8.626;2022-11-20T03:23:32;29.17;;;19.67;;
10643;SDS011;5370;50.132;8.626;2022-11-20T03:28:54;27.67;;;18.63;;
10643;SDS011;5370;50.132;8.626;2022-11-20T03:31:22;27.83;;;19.97;;
10643;SDS011;5370;50.132;8.626;2022-11-20T03:33:52;27.50;;;19.17;;
10643;SDS011;5370;50.132;8.626;2022-11-20T03:36:18;27.70;;;20.10;;
10643;SDS011;5370;50.132;8.626;2022-11-20T03:38:45;32.43;;;19.53;;
10643;SDS011;5370;50.132;8.626;2022-11-20T03:41:23;28.77;;;19.70;;
10643;SDS011;5370;50.132;8.626;2022-11-20T03:43:54;26.47;;;18.33;;
10643;SDS011;5370;50.132;8.626;2022-11-20T03:46:21;28.27;;;19.20;;
10643;SDS011;5370;50.132;8.626;2022-11-20T03:48:47;26.17;;;18.17;;
10643;SDS011;5370;50.132;8.626;2022-11-20T03:51:14;28.43;;;19.37;;
10643;SDS011;5370;50.132;8.626;2022-11-20T03:53:41;25.47;;;18.87;;
10643;SDS011;5370;50.132;8.626;2022-11-20T03:56:09;26.03;;;17.77;;
10643;SDS011;5370;50.132;8.626;2022-11-20T03:58:36;27.17;;;19.13;;
10643;SDS011;5370;50.132;8.626;2022-11-20T04:01:11;26.93;;;18.97;;
10643;SDS011;5370;50.132;8.626;2022-11-20T04:03:39;27.47;;;18.40;;
10643;SDS011;5370;50.132;8.626;2022-11-20T04:06:07;25.53;;;17.97;;
10643;SDS011;5370;50.132;8.626;2022-11-20T04:08:34;24.70;;;17.93;;
10643;SDS011;5370;50.132;8.626;2022-11-20T04:11:10;27.13;;;18.83;;
10643;SDS011;5370;50.132;8.626;2022-11-20T04:13:41;24.03;;;17.77;;
10643;SDS011;5370;50.132;8.626;2022-11-20T04:16:10;25.70;;;19.50;;
10643;SDS011;5370;50.132;8.626;2022-11-20T04:18:35;23.43;;;17.37;;
10643;SDS011;5370;50.132;8.626;2022-11-20T04:21:02;24.40;;;17.47;;
10643;SDS011;5370;50.132;8.626;2022-11-20T04:23:28;25.03;;;16.77;;
10643;SDS011;5370;50.132;8.626;2022-11-20T04:25:54;24.83;;;17.07;;
10643;SDS011;5370;50.132;8.626;2022-11-20T04:28:25;26.60;;;17.53;;
10643;SDS011;5370;50.132;8.626;2022-11-20T04:30:50;26.10;;;18.50;;
10643;SDS011;5370;50.132;8.626;2022-11-20T04:33:16;25.00;;;18.30;;
10643;SDS011;5370;50.132;8.626;2022-11-20T04:35:41;26.63;;;17.33;;
10643;SDS011;5370;50.132;8.626;2022-11-20T04:38:07;26.03;;;18.67;;
10643;SDS011;5370;50.132;8.626;2022-11-20T04:40:33;28.00;;;18.50;;
10643;SDS011;5370;50.132;8.626;2022-11-20T04:42:58;30.43;;;19.20;;
10643;SDS011;5370;50.132;8.626;2022-11-20T04:45:24;27.47;;;17.97;;
10643;SDS011;5370;50.132;8.626;2022-11-20T04:47:49;25.93;;;16.60;;
10643;SDS011;5370;50.132;8.626;2022-11-20T04:50:15;24.97;;;17.77;;
10643;SDS011;5370;50.132;8.626;2022-11-20T04:52:41;26.40;;;19.10;;
10643;SDS011;5370;50.132;8.626;2022-11-20T04:55:06;24.00;;;17.37;;
10643;SDS011;5370;50.132;8.626;2022-11-20T04:57:32;25.17;;;17.83;;
10643;SDS011;5370;50.132;8.626;2022-11-20T04:59:58;26.77;;;18.23;;
10643;SDS011;5370;50.132;8.626;2022-11-20T05:02:23;26.97;;;18.37;;
10643;SDS011;5370;50.132;8.626;2022-11-20T05:04:49;27.83;;;18.57;;
10643;SDS011;5370;50.132;8.626;2022-11-20T05:07:14;25.17;;;18.07;;
10643;SDS011;5370;50.132;8.626;2022-11-20T05:09:40;25.73;;;18.17;;
10643;SDS011;5370;50.132;8.626;2022-11-20T05:12:09;26.30;;;18.13;;
10643;SDS011;5370;50.132;8.626;2022-11-20T05:14:35;26.03;;;18.40;;
10643;SDS011;5370;50.132;8.626;2022-11-20T05:17:00;23.53;;;17.47;;
10643;SDS011;5370;50.132;8.626;2022-11-20T05:19:26;26.47;;;17.70;;
10643;SDS011;5370;50.132;8.626;2022-11-20T05:21:51;21.47;;;16.47;;
10643;SDS011;5370;50.132;8.626;2022-11-20T05:24:17;24.73;;;17.10;;
10643;SDS011;5370;50.132;8.626;2022-11-20T05:26:42;27.63;;;18.60;;
10643;SDS011;5370;50.132;8.626;2022-11-20T05:29:11;23.83;;;16.60;;
10643;SDS011;5370;50.132;8.626;2022-11-20T05:31:38;25.10;;;18.87;;
10643;SDS011;5370;50.132;8.626;2022-11-20T05:34:05;22.53;;;16.73;;
10643;SDS011;5370;50.132;8.626;2022-11-20T05:36:31;21.67;;;15.63;;
10643;SDS011;5370;50.132;8.626;2022-11-20T05:38:57;24.70;;;17.17;;
10643;SDS011;5370;50.132;8.626;2022-11-20T05:41:22;24.07;;;17.13;;
10643;SDS011;5370;50.132;8.626;2022-11-20T05:43:48;23.80;;;16.53;;
10643;SDS011;5370;50.132;8.626;2022-11-20T05:46:15;24.73;;;18.07;;
10643;SDS011;5370;50.132;8.626;2022-11-20T05:48:45;29.03;;;17.90;;
10643;SDS011;5370;50.132;8.626;2022-11-20T05:51:16;25.20;;;17.33;;
10643;SDS011;5370;50.132;8.626;2022-11-20T05:53:42;28.97;;;19.63;;
10643;SDS011;5370;50.132;8.626;2022-11-20T05:56:09;28.50;;;18.60;;
10643;SDS011;5370;50.132;8.626;2022-11-20T05:58:37;30.93;;;20.27;;
10643;SDS011;5370;50.132;8.626;2022-11-20T06:01:08;28.17;;;19.13;;
10643;SDS011;5370;50.132;8.626;2022-11-20T06:03:37;27.30;;;18.07;;
10643;SDS011;5370;50.132;8.626;2022-11-20T06:06:04;25.13;;;17.63;;
10643;SDS011;5370;50.132;8.626;2022-11-20T06:08:30;30.47;;;19.50;;
10643;SDS011;5370;50.132;8.626;2022-11-20T06:10:56;35.17;;;21.70;;
10643;SDS011;5370;50.132;8.626;2022-11-20T06:13:22;30.83;;;20.00;;
10643;SDS011;5370;50.132;8.626;2022-11-20T06:15:48;33.13;;;19.93;;
10643;SDS011;5370;50.132;8.626;2022-11-20T06:18:15;32.17;;;20.13;;
10643;SDS011;5370;50.132;8.626;2022-11-20T06:20:40;35.70;;;21.57;;
10643;SDS011;5370;50.132;8.626;2022-11-20T06:23:06;35.47;;;21.43;;
10643;SDS011;5370;50.132;8.626;2022-11-20T06:25:31;35.13;;;22.07;;
10643;SDS011;5370;50.132;8.626;2022-11-20T06:27:57;33.97;;;20.33;;
10643;SDS011;5370;50.132;8.626;2022-11-20T06:30:22;35.87;;;22.30;;
10643;SDS011;5370;50.132;8.626;2022-11-20T06:32:48;34.63;;;20.87;;
10643;SDS011;5370;50.132;8.626;2022-11-20T06:35:13;38.43;;;22.23;;
10643;SDS011;5370;50.132;8.626;2022-11-20T06:37:39;34.27;;;21.10;;
10643;SDS011;5370;50.132;8.626;2022-11-20T06:40:04;37.90;;;22.17;;
10643;SDS011;5370;50.132;8.626;2022-11-20T06:42:30;37.63;;;23.87;;
10643;SDS011;5370;50.132;8.626;2022-11-20T06:44:57;32.73;;;21.33;;
10643;SDS011;5370;50.132;8.626;2022-11-20T06:47:22;36.80;;;23.07;;
10643;SDS011;5370;50.132;8.626;2022-11-20T06:49:48;33.50;;;21.57;;
10643;SDS011;5370;50.132;8.626;2022-11-20T06:52:13;37.43;;;22.87;;
10643;SDS011;5370;50.132;8.626;2022-11-20T06:54:39;35.30;;;21.77;;
10643;SDS011;5370;50.132;8.626;2022-11-20T06:57:04;40.00;;;22.93;;
10643;SDS011;5370;50.132;8.626;2022-11-20T06:59:30;36.10;;;23.30;;
10643;SDS011;5370;50.132;8.626;2022-11-20T07:01:55;45.53;;;25.37;;
10643;SDS011;5370;50.132;8.626;2022-11-20T07:04:21;41.47;;;24.03;;
10643;SDS011;5370;50.132;8.626;2022-11-20T07:06:46;44.07;;;25.70;;
10643;SDS011;5370;50.132;8.626;2022-11-20T07:09:13;45.20;;;24.53;;
10643;SDS011;5370;50.132;8.626;2022-11-20T07:11:38;42.03;;;24.53;;
10643;SDS011;5370;50.132;8.626;2022-11-20T07:14:04;46.00;;;26.93;;
10643;SDS011;5370;50.132;8.626;2022-11-20T07:16:30;41.70;;;25.17;;
10643;SDS011;5370;50.132;8.626;2022-11-20T07:18:55;46.73;;;25.87;;
10643;SDS011;5370;50.132;8.626;2022-11-20T07:21:21;44.20;;;25.80;;
10643;SDS011;5370;50.132;8.626;2022-11-20T07:23:46;49.63;;;25.33;;
10643;SDS011;5370;50.132;8.626;2022-11-20T07:26:12;50.50;;;27.47;;
10643;SDS011;5370;50.132;8.626;2022-11-20T07:28:38;45.67;;;24.43;;
10643;SDS011;5370;50.132;8.626;2022-11-20T07:31:03;48.10;;;26.50;;
10643;SDS011;5370;50.132;8.626;2022-11-20T07:33:29;45.10;;;25.30;;
10643;SDS011;5370;50.132;8.626;2022-11-20T07:35:55;46.93;;;25.93;;
10643;SDS011;5370;50.132;8.626;2022-11-20T07:38:22;43.90;;;25.07;;
10643;SDS011;5370;50.132;8.626;2022-11-20T07:40:48;46.50;;;25.30;;
10643;SDS011;5370;50.132;8.626;2022-11-20T07:43:20;47.07;;;24.90;;
10643;SDS011;5370;50.132;8.626;2022-11-20T07:45:46;44.37;;;26.33;;
10643;SDS011;5370;50.132;8.626;2022-11-20T07:48:11;49.97;;;25.70;;
10643;SDS011;5370;50.132;8.626;2022-11-20T07:50:37;53.97;;;26.87;;
10643;SDS011;5370;50.132;8.626;2022-11-20T07:53:03;48.87;;;26.07;;
10643;SDS011;5370;50.132;8.626;2022-11-20T07:55:30;43.77;;;23.57;;
10643;SDS011;5370;50.132;8.626;2022-11-20T07:57:56;44.33;;;24.47;;
10643;SDS011;5370;50.132;8.626;2022-11-20T08:00:22;41.67;;;23.43;;
10643;SDS011;5370;50.132;8.626;2022-11-20T08:02:48;45.43;;;24.07;;
10643;SDS011;5370;50.132;8.626;2022-11-20T08:05:13;43.37;;;23.60;;
10643;SDS011;5370;50.132;8.626;2022-11-20T08:07:39;49.80;;;25.70;;
10643;SDS011;5370;50.132;8.626;2022-11-20T08:10:07;44.73;;;25.13;;
10643;SDS011;5370;50.132;8.626;2022-11-20T08:12:34;47.37;;;25.97;;
10643;SDS011;5370;50.132;8.626;2022-11-20T08:15:18;47.17;;;25.27;;
10643;SDS011;5370;50.132;8.626;2022-11-20T08:17:43;48.70;;;25.93;;
10643;SDS011;5370;50.132;8.626;2022-11-20T08:20:09;43.93;;;24.90;;
10643;SDS011;5370;50.132;8.626;2022-11-20T08:22:35;46.57;;;25.87;;
10643;SDS011;5370;50.132;8.626;2022-11-20T08:25:01;45.40;;;25.03;;
10643;SDS011;5370;50.132;8.626;2022-11-20T08:27:26;46.70;;;25.93;;
10643;SDS011;5370;50.132;8.626;2022-11-20T08:29:52;43.27;;;25.13;;
10643;SDS011;5370;50.132;8.626;2022-11-20T08:32:17;45.73;;;24.90;;
10643;SDS011;5370;50.132;8.626;2022-11-20T08:34:43;45.43;;;25.07;;
10643;SDS011;5370;50.132;8.626;2022-11-20T08:37:08;42.83;;;24.97;;
10643;SDS011;5370;50.132;8.626;2022-11-20T08:39:34;47.03;;;23.63;;
10643;SDS011;5370;50.132;8.626;2022-11-20T08:41:59;42.17;;;23.33;;
10643;SDS011;5370;50.132;8.626;2022-11-20T08:44:25;45.97;;;24.93;;
10643;SDS011;5370;50.132;8.626;2022-11-20T08:46:50;39.77;;;23.10;;
10643;SDS011;5370;50.132;8.626;2022-11-20T08:49:16;40.30;;;22.20;;
10643;SDS011;5370;50.132;8.626;2022-11-20T08:51:42;36.80;;;22.17;;
10643;SDS011;5370;50.132;8.626;2022-11-20T08:54:08;40.80;;;23.40;;
10643;SDS011;5370;50.132;8.626;2022-11-20T08:56:34;41.63;;;23.73;;
10643;SDS011;5370;50.132;8.626;2022-11-20T08:59:00;42.80;;;22.93;;
10643;SDS011;5370;50.132;8.626;2022-11-20T09:01:26;44.27;;;24.10;;
10643;SDS011;5370;50.132;8.626;2022-11-20T09:03:51;38.07;;;22.77;;
10643;SDS011;5370;50.132;8.626;2022-11-20T09:06:17;41.90;;;23.27;;
10643;SDS011;5370;50.132;8.626;2022-11-20T09:08:43;40.00;;;23.47;;
10643;SDS011;5370;50.132;8.626;2022-11-20T09:11:09;40.57;;;23.43;;
10643;SDS011;5370;50.132;8.626;2022-11-20T09:13:35;43.50;;;23.27;;
10643;SDS011;5370;50.132;8.626;2022-11-20T09:16:02;40.73;;;23.50;;
10643;SDS011;5370;50.132;8.626;2022-11-20T09:18:30;36.93;;;22.33;;
10643;SDS011;5370;50.132;8.626;2022-11-20T09:21:01;47.60;;;23.53;;
10643;SDS011;5370;50.132;8.626;2022-11-20T09:23:30;45.57;;;23.83;;
10643;SDS011;5370;50.132;8.626;2022-11-20T09:26:00;395.27;;;282.77;;
10643;SDS011;5370;50.132;8.626;2022-11-20T09:28:30;258.97;;;151.80;;
10643;SDS011;5370;50.132;8.626;2022-11-20T09:30:56;129.50;;;72.73;;
10643;SDS011;5370;50.132;8.626;2022-11-20T09:33:21;114.33;;;59.23;;
10643;SDS011;5370;50.132;8.626;2022-11-20T09:35:47;72.33;;;41.27;;
10643;SDS011;5370;50.132;8.626;2022-11-20T09:38:12;112.03;;;63.67;;
10643;SDS011;5370;50.132;8.626;2022-11-20T09:40:40;49.67;;;26.70;;
10643;SDS011;5370;50.132;8.626;2022-11-20T09:43:13;41.27;;;22.93;;
10643;SDS011;5370;50.132;8.626;2022-11-20T09:46:04;51.63;;;31.23;;
10643;SDS011;5370;50.132;8.626;2022-11-20T09:54:25;35.60;;;22.37;;
10643;SDS011;5370;50.132;8.626;2022-11-20T09:56:59;38.13;;;23.67;;
10643;SDS011;5370;50.132;8.626;2022-11-20T10:01:58;44.37;;;23.37;;
10643;SDS011;5370;50.132;8.626;2022-11-20T10:04:25;37.20;;;23.17;;
10643;SDS011;5370;50.132;8.626;2022-11-20T10:07:00;40.30;;;22.30;;
10643;SDS011;5370;50.132;8.626;2022-11-20T10:09:53;41.90;;;24.30;;
10643;SDS011;5370;50.132;8.626;2022-11-20T10:15:04;35.17;;;21.50;;
10643;SDS011;5370;50.132;8.626;2022-11-20T10:18:02;32.07;;;20.73;;
10643;SDS011;5370;50.132;8.626;2022-11-20T10:28:30;38.03;;;21.90;;
10643;SDS011;5370;50.132;8.626;2022-11-20T10:34:01;36.77;;;21.63;;
10643;SDS011;5370;50.132;8.626;2022-11-20T10:36:37;35.40;;;21.80;;
10643;SDS011;5370;50.132;8.626;2022-11-20T10:42:17;37.33;;;22.40;;
10643;SDS011;5370;50.132;8.626;2022-11-20T10:44:57;35.83;;;22.03;;
10643;SDS011;5370;50.132;8.626;2022-11-20T10:47:27;31.70;;;21.50;;
10643;SDS011;5370;50.132;8.626;2022-11-20T10:49:56;34.87;;;20.97;;
10643;SDS011;5370;50.132;8.626;2022-11-20T11:00:43;40.43;;;22.63;;
10643;SDS011;5370;50.132;8.626;2022-11-20T11:03:28;34.90;;;21.10;;
10643;SDS011;5370;50.132;8.626;2022-11-20T11:08:38;36.30;;;21.33;;
10643;SDS011;5370;50.132;8.626;2022-11-20T11:11:24;39.37;;;23.33;;
10643;SDS011;5370;50.132;8.626;2022-11-20T11:14:04;37.63;;;22.60;;
10643;SDS011;5370;50.132;8.626;2022-11-20T11:16:31;39.73;;;23.20;;
10643;SDS011;5370;50.132;8.626;2022-11-20T11:19:29;36.97;;;22.80;;
10643;SDS011;5370;50.132;8.626;2022-11-20T11:21:55;36.30;;;21.77;;
10643;SDS011;5370;50.132;8.626;2022-11-20T11:24:22;40.27;;;23.47;;
10643;SDS011;5370;50.132;8.626;2022-11-20T11:26:57;40.40;;;22.93;;
10643;SDS011;5370;50.132;8.626;2022-11-20T11:29:24;37.90;;;21.63;;
10643;SDS011;5370;50.132;8.626;2022-11-20T11:32:04;40.03;;;23.20;;
10643;SDS011;5370;50.132;8.626;2022-11-20T11:34:30;35.60;;;22.27;;
10643;SDS011;5370;50.132;8.626;2022-11-20T11:36:57;41.27;;;23.80;;
10643;SDS011;5370;50.132;8.626;2022-11-20T11:39:23;35.10;;;21.00;;
10643;SDS011;5370;50.132;8.626;2022-11-20T11:41:52;39.07;;;24.63;;
10643;SDS011;5370;50.132;8.626;2022-11-20T11:44:25;40.80;;;22.30;;
10643;SDS011;5370;50.132;8.626;2022-11-20T11:49:49;39.47;;;23.97;;
10643;SDS011;5370;50.132;8.626;2022-11-20T11:55:27;36.57;;;21.80;;
10643;SDS011;5370;50.132;8.626;2022-11-20T11:58:27;41.87;;;23.90;;
10643;SDS011;5370;50.132;8.626;2022-11-20T12:01:07;43.50;;;24.83;;
10643;SDS011;5370;50.132;8.626;2022-11-20T12:04:03;37.70;;;24.23;;
10643;SDS011;5370;50.132;8.626;2022-11-20T12:06:53;38.07;;;21.83;;
10643;SDS011;5370;50.132;8.626;2022-11-20T12:09:27;35.10;;;22.50;;
10643;SDS011;5370;50.132;8.626;2022-11-20T12:12:10;35.77;;;21.40;;
10643;SDS011;5370;50.132;8.626;2022-11-20T12:15:00;39.80;;;22.13;;
10643;SDS011;5370;50.132;8.626;2022-11-20T12:17:27;37.87;;;23.17;;
10643;SDS011;5370;50.132;8.626;2022-11-20T12:19:52;29.73;;;19.83;;
10643;SDS011;5370;50.132;8.626;2022-11-20T12:24:55;32.63;;;19.93;;
10643;SDS011;5370;50.132;8.626;2022-11-20T12:27:47;29.90;;;19.43;;
10643;SDS011;5370;50.132;8.626;2022-11-20T12:30:27;27.63;;;18.17;;
10643;SDS011;5370;50.132;8.626;2022-11-20T12:36:01;35.33;;;20.83;;
10643;SDS011;5370;50.132;8.626;2022-11-20T12:42:08;32.57;;;20.37;;
10643;SDS011;5370;50.132;8.626;2022-11-20T12:45:02;29.50;;;18.33;;
10643;SDS011;5370;50.132;8.626;2022-11-20T12:53:19;29.10;;;19.13;;
10643;SDS011;5370;50.132;8.626;2022-11-20T13:01:20;27.77;;;18.83;;
10643;SDS011;5370;50.132;8.626;2022-11-20T13:06:55;33.93;;;20.23;;
10643;SDS011;5370;50.132;8.626;2022-11-20T13:09:22;30.73;;;19.10;;
10643;SDS011;5370;50.132;8.626;2022-11-20T13:20:14;30.20;;;20.07;;
10643;SDS011;5370;50.132;8.626;2022-11-20T13:22:48;33.17;;;21.20;;
10643;SDS011;5370;50.132;8.626;2022-11-20T13:27:53;29.67;;;19.03;;
10643;SDS011;5370;50.132;8.626;2022-11-20T13:30:20;32.50;;;21.00;;
10643;SDS011;5370;50.132;8.626;2022-11-20T13:32:48;29.77;;;20.90;;
10643;SDS011;5370;50.132;8.626;2022-11-20T13:40:37;30.53;;;19.77;;
10643;SDS011;5370;50.132;8.626;2022-11-20T13:46:09;33.73;;;20.60;;
10643;SDS011;5370;50.132;8.626;2022-11-20T13:48:39;28.73;;;20.13;;
10643;SDS011;5370;50.132;8.626;2022-11-20T13:51:14;28.43;;;19.67;;
10643;SDS011;5370;50.132;8.626;2022-11-20T13:53:52;26.43;;;18.93;;
10643;SDS011;5370;50.132;8.626;2022-11-20T14:01:49;26.67;;;18.57;;
10643;SDS011;5370;50.132;8.626;2022-11-20T14:04:15;31.13;;;21.00;;
10643;SDS011;5370;50.132;8.626;2022-11-20T14:06:45;27.83;;;19.83;;
10643;SDS011;5370;50.132;8.626;2022-11-20T14:09:24;28.17;;;18.70;;
10643;SDS011;5370;50.132;8.626;2022-11-20T14:11:59;26.67;;;18.47;;
10643;SDS011;5370;50.132;8.626;2022-11-20T14:14:28;26.50;;;19.03;;
10643;SDS011;5370;50.132;8.626;2022-11-20T14:17:07;28.50;;;20.23;;
10643;SDS011;5370;50.132;8.626;2022-11-20T14:19:41;26.20;;;19.07;;
10643;SDS011;5370;50.132;8.626;2022-11-20T14:24:44;30.97;;;19.03;;
10643;SDS011;5370;50.132;8.626;2022-11-20T14:27:13;26.63;;;17.27;;
10643;SDS011;5370;50.132;8.626;2022-11-20T14:29:40;28.53;;;17.83;;
10643;SDS011;5370;50.132;8.626;2022-11-20T14:32:08;25.03;;;17.53;;
10643;SDS011;5370;50.132;8.626;2022-11-20T14:34:37;27.30;;;18.23;;
10643;SDS011;5370;50.132;8.626;2022-11-20T14:37:06;27.40;;;17.67;;
10643;SDS011;5370;50.132;8.626;2022-11-20T14:39:37;27.10;;;19.20;;
10643;SDS011;5370;50.132;8.626;2022-11-20T14:42:19;25.40;;;17.27;;
10643;SDS011;5370;50.132;8.626;2022-11-20T14:44:47;25.07;;;18.00;;
10643;SDS011;5370;50.132;8.626;2022-11-20T14:47:17;24.00;;;16.83;;
10643;SDS011;5370;50.132;8.626;2022-11-20T14:49:45;27.57;;;17.90;;
10643;SDS011;5370;50.132;8.626;2022-11-20T14:54:51;23.13;;;16.47;;
10643;SDS011;5370;50.132;8.626;2022-11-20T14:57:25;24.93;;;16.47;;
10643;SDS011;5370;50.132;8.626;2022-11-20T15:00:02;25.73;;;17.00;;
10643;SDS011;5370;50.132;8.626;2022-11-20T15:02:44;23.90;;;16.93;;
10643;SDS011;5370;50.132;8.626;2022-11-20T15:05:10;25.10;;;16.70;;
10643;SDS011;5370;50.132;8.626;2022-11-20T15:07:38;25.77;;;17.83;;
10643;SDS011;5370;50.132;8.626;2022-11-20T15:10:09;26.77;;;17.10;;
10643;SDS011;5370;50.132;8.626;2022-11-20T15:12:37;32.13;;;16.90;;
10643;SDS011;5370;50.132;8.626;2022-11-20T15:15:10;22.27;;;15.47;;
10643;SDS011;5370;50.132;8.626;2022-11-20T15:17:39;25.17;;;17.10;;
10643;SDS011;5370;50.132;8.626;2022-11-20T15:20:09;24.90;;;16.53;;
10643;SDS011;5370;50.132;8.626;2022-11-20T15:22:39;25.13;;;16.30;;
10643;SDS011;5370;50.132;8.626;2022-11-20T15:25:11;25.43;;;16.33;;
10643;SDS011;5370;50.132;8.626;2022-11-20T15:27:38;23.70;;;15.27;;
10643;SDS011;5370;50.132;8.626;2022-11-20T15:30:11;23.00;;;16.33;;
10643;SDS011;5370;50.132;8.626;2022-11-20T15:32:42;22.90;;;16.43;;
10643;SDS011;5370;50.132;8.626;2022-11-20T15:35:08;23.73;;;15.63;;
10643;SDS011;5370;50.132;8.626;2022-11-20T15:37:34;24.57;;;17.07;;
10643;SDS011;5370;50.132;8.626;2022-11-20T15:40:00;21.27;;;15.37;;
10643;SDS011;5370;50.132;8.626;2022-11-20T15:42:26;24.37;;;17.13;;
10643;SDS011;5370;50.132;8.626;2022-11-20T15:44:51;24.10;;;16.63;;
10643;SDS011;5370;50.132;8.626;2022-11-20T15:47:24;24.77;;;16.17;;
10643;SDS011;5370;50.132;8.626;2022-11-20T15:49:52;23.30;;;16.33;;
10643;SDS011;5370;50.132;8.626;2022-11-20T15:52:18;23.23;;;15.77;;
10643;SDS011;5370;50.132;8.626;2022-11-20T15:54:43;22.97;;;15.67;;
10643;SDS011;5370;50.132;8.626;2022-11-20T15:57:09;24.10;;;16.27;;
10643;SDS011;5370;50.132;8.626;2022-11-20T15:59:34;24.17;;;16.60;;
10643;SDS011;5370;50.132;8.626;2022-11-20T16:02:08;23.33;;;16.33;;
10643;SDS011;5370;50.132;8.626;2022-11-20T16:04:35;23.00;;;15.67;;
10643;SDS011;5370;50.132;8.626;2022-11-20T16:07:00;22.53;;;16.60;;
10643;SDS011;5370;50.132;8.626;2022-11-20T16:09:26;22.40;;;15.47;;
10643;SDS011;5370;50.132;8.626;2022-11-20T16:11:52;23.93;;;16.43;;
10643;SDS011;5370;50.132;8.626;2022-11-20T16:14:17;22.23;;;15.97;;
10643;SDS011;5370;50.132;8.626;2022-11-20T16:17:02;20.83;;;15.10;;
10643;SDS011;5370;50.132;8.626;2022-11-20T16:19:27;19.27;;;14.40;;
10643;SDS011;5370;50.132;8.626;2022-11-20T16:21:53;22.07;;;15.77;;
10643;SDS011;5370;50.132;8.626;2022-11-20T16:24:18;24.63;;;17.30;;